createdAt,value
2019-01-21T00:00:42.675Z,0.00
2019-01-21T00:01:40.786Z,0.00
2019-01-21T00:02:40.695Z,0.00
2019-01-21T00:03:40.605Z,0.00
2019-01-21T00:04:40.517Z,0.00
2019-01-21T00:05:40.421Z,0.00
2019-01-21T00:06:40.323Z,0.00
2019-01-21T00:07:40.231Z,0.00
2019-01-21T00:08:40.148Z,0.00
2019-01-21T00:09:40.066Z,0.00
2019-01-21T00:10:39.965Z,0.00
2019-01-21T00:11:39.883Z,0.00
2019-01-21T00:12:39.785Z,0.00
2019-01-21T00:13:39.706Z,0.00
2019-01-21T00:14:39.603Z,0.00
2019-01-21T00:15:39.518Z,0.00
2019-01-21T00:16:39.414Z,0.00
2019-01-21T00:17:39.327Z,0.00
2019-01-21T00:18:39.231Z,0.00
2019-01-21T00:19:39.140Z,0.00
2019-01-21T00:20:39.057Z,0.00
2019-01-21T00:21:39.808Z,0.00
2019-01-21T00:22:38.870Z,0.00
2019-01-21T00:23:38.779Z,0.00
2019-01-21T00:24:38.693Z,0.00
2019-01-21T00:25:38.609Z,0.00
2019-01-21T00:26:38.500Z,0.00
2019-01-21T00:27:38.414Z,0.00
2019-01-21T00:28:38.318Z,0.00
2019-01-21T00:29:38.231Z,0.00
2019-01-21T00:30:38.138Z,0.00
2019-01-21T00:31:38.050Z,0.00
2019-01-21T00:32:37.957Z,0.00
2019-01-21T00:33:37.864Z,0.00
2019-01-21T00:34:37.829Z,0.00
2019-01-21T00:35:37.680Z,0.00
2019-01-21T00:36:37.594Z,0.00
2019-01-21T00:37:37.516Z,0.00
2019-01-21T00:38:37.407Z,0.00
2019-01-21T00:39:37.384Z,0.00
2019-01-21T00:40:37.229Z,0.00
2019-01-21T00:41:37.135Z,0.00
2019-01-21T00:42:37.054Z,0.00
2019-01-21T00:43:36.952Z,0.00
2019-01-21T00:44:36.862Z,0.00
2019-01-21T00:45:36.768Z,0.00
2019-01-21T00:46:36.679Z,0.00
2019-01-21T00:47:36.589Z,0.00
2019-01-21T00:48:36.497Z,0.00
2019-01-21T00:49:36.405Z,0.00
2019-01-21T00:50:36.318Z,0.00
2019-01-21T00:51:36.221Z,0.00
2019-01-21T00:52:36.136Z,0.00
2019-01-21T00:53:36.044Z,0.00
2019-01-21T00:54:35.951Z,0.00
2019-01-21T00:55:35.858Z,0.00
2019-01-21T00:56:35.771Z,0.00
2019-01-21T00:57:35.676Z,0.00
2019-01-21T00:58:35.583Z,0.00
2019-01-21T00:59:35.513Z,0.00
2019-01-21T01:00:35.406Z,0.00
2019-01-21T01:01:35.315Z,0.00
2019-01-21T01:02:35.223Z,0.00
2019-01-21T01:03:35.126Z,0.00
2019-01-21T01:04:35.035Z,0.00
2019-01-21T01:05:34.945Z,0.00
2019-01-21T01:06:34.858Z,0.00
2019-01-21T01:07:34.769Z,0.00
2019-01-21T01:08:34.675Z,0.00
2019-01-21T01:09:34.579Z,0.00
2019-01-21T01:10:34.502Z,0.00
2019-01-21T01:11:34.409Z,0.00
2019-01-21T01:12:34.308Z,0.00
2019-01-21T01:13:34.219Z,0.00
2019-01-21T01:14:34.126Z,0.00
2019-01-21T01:15:34.046Z,0.00
2019-01-21T01:16:33.939Z,0.00
2019-01-21T01:17:37.285Z,0.00
2019-01-21T01:18:33.757Z,0.00
2019-01-21T01:19:33.686Z,0.00
2019-01-21T01:20:33.583Z,0.00
2019-01-21T01:21:33.486Z,0.00
2019-01-21T01:22:33.389Z,0.00
2019-01-21T01:23:33.301Z,0.00
2019-01-21T01:24:33.207Z,0.00
2019-01-21T01:25:33.124Z,0.00
2019-01-21T01:26:33.040Z,0.00
2019-01-21T01:27:32.931Z,0.00
2019-01-21T01:28:32.846Z,0.00
2019-01-21T01:29:32.748Z,0.00
2019-01-21T01:30:32.662Z,0.00
2019-01-21T01:31:32.563Z,0.00
2019-01-21T01:32:32.478Z,0.00
2019-01-21T01:33:32.381Z,0.00
2019-01-21T01:34:32.298Z,0.00
2019-01-21T01:35:32.200Z,0.00
2019-01-21T01:36:32.108Z,0.00
2019-01-21T01:37:32.015Z,0.00
2019-01-21T01:38:31.925Z,0.00
2019-01-21T01:39:31.839Z,0.00
2019-01-21T01:40:31.746Z,0.00
2019-01-21T01:41:31.656Z,0.00
2019-01-21T01:42:31.565Z,0.00
2019-01-21T01:43:31.475Z,0.00
2019-01-21T01:44:31.376Z,0.00
2019-01-21T01:45:31.285Z,0.00
2019-01-21T01:46:31.193Z,0.00
2019-01-21T01:47:31.103Z,0.00
2019-01-21T01:48:31.026Z,0.00
2019-01-21T01:49:30.921Z,0.00
2019-01-21T01:50:30.827Z,0.00
2019-01-21T01:51:30.736Z,0.00
2019-01-21T01:52:30.657Z,0.00
2019-01-21T01:53:30.560Z,0.00
2019-01-21T01:54:30.467Z,0.00
2019-01-21T01:55:30.372Z,0.00
2019-01-21T01:56:30.282Z,0.00
2019-01-21T01:57:30.191Z,0.00
2019-01-21T01:58:30.103Z,0.00
2019-01-21T01:59:30.000Z,0.00
2019-01-21T02:00:29.914Z,0.00
2019-01-21T02:01:29.824Z,0.00
2019-01-21T02:02:29.729Z,0.00
2019-01-21T02:03:29.635Z,0.00
2019-01-21T02:04:29.541Z,0.00
2019-01-21T02:05:29.453Z,0.00
2019-01-21T02:06:29.377Z,0.00
2019-01-21T02:07:29.266Z,0.00
2019-01-21T02:08:29.194Z,0.00
2019-01-21T02:09:29.107Z,0.00
2019-01-21T02:10:28.991Z,0.00
2019-01-21T02:11:28.901Z,0.00
2019-01-21T02:12:28.814Z,0.00
2019-01-21T02:13:28.763Z,0.00
2019-01-21T02:14:28.627Z,0.00
2019-01-21T02:15:28.534Z,0.00
2019-01-21T02:16:28.443Z,0.00
2019-01-21T02:17:28.356Z,0.00
2019-01-21T02:18:28.261Z,0.00
2019-01-21T02:19:28.165Z,0.00
2019-01-21T02:20:28.076Z,0.00
2019-01-21T02:21:27.990Z,0.00
2019-01-21T02:22:27.894Z,0.00
2019-01-21T02:23:27.801Z,0.00
2019-01-21T02:24:27.706Z,0.00
2019-01-21T02:25:27.626Z,0.00
2019-01-21T02:26:27.532Z,0.00
2019-01-21T02:27:27.428Z,0.00
2019-01-21T02:28:27.339Z,0.00
2019-01-21T02:29:27.248Z,0.00
2019-01-21T02:30:27.156Z,0.00
2019-01-21T02:31:27.074Z,0.00
2019-01-21T02:32:26.977Z,0.00
2019-01-21T02:33:26.923Z,0.00
2019-01-21T02:34:26.792Z,0.00
2019-01-21T02:35:26.696Z,0.00
2019-01-21T02:36:26.605Z,0.00
2019-01-21T02:37:26.514Z,0.00
2019-01-21T02:38:26.428Z,0.00
2019-01-21T02:39:26.338Z,0.00
2019-01-21T02:40:26.240Z,0.00
2019-01-21T02:41:26.158Z,0.00
2019-01-21T02:42:26.060Z,0.00
2019-01-21T02:43:25.982Z,0.00
2019-01-21T02:44:25.872Z,0.00
2019-01-21T02:45:25.786Z,0.00
2019-01-21T02:46:25.705Z,0.00
2019-01-21T02:47:25.597Z,0.00
2019-01-21T02:48:25.503Z,0.00
2019-01-21T02:49:25.414Z,0.00
2019-01-21T02:50:25.325Z,0.00
2019-01-21T02:51:25.230Z,0.00
2019-01-21T02:52:25.141Z,0.00
2019-01-21T02:53:25.045Z,0.00
2019-01-21T02:54:24.952Z,0.00
2019-01-21T02:55:24.859Z,0.00
2019-01-21T02:56:24.771Z,0.00
2019-01-21T02:57:24.676Z,0.00
2019-01-21T02:58:24.591Z,0.00
2019-01-21T02:59:24.492Z,0.00
2019-01-21T03:00:24.413Z,0.00
2019-01-21T03:01:24.309Z,0.00
2019-01-21T03:02:24.223Z,0.00
2019-01-21T03:03:24.124Z,0.00
2019-01-21T03:04:24.040Z,0.00
2019-01-21T03:05:23.965Z,0.00
2019-01-21T03:06:23.851Z,0.00
2019-01-21T03:07:23.759Z,0.00
2019-01-21T03:08:23.666Z,0.00
2019-01-21T03:09:23.575Z,0.00
2019-01-21T03:10:23.481Z,0.00
2019-01-21T03:11:23.387Z,0.00
2019-01-21T03:12:23.296Z,0.00
2019-01-21T03:13:23.211Z,0.00
2019-01-21T03:14:23.125Z,0.00
2019-01-21T03:15:23.030Z,0.00
2019-01-21T03:16:22.927Z,0.00
2019-01-21T03:17:22.837Z,0.00
2019-01-21T03:18:22.750Z,0.00
2019-01-21T03:19:22.677Z,0.00
2019-01-21T03:20:22.566Z,0.00
2019-01-21T03:21:22.468Z,0.00
2019-01-21T03:22:22.378Z,0.00
2019-01-21T03:23:22.283Z,0.00
2019-01-21T03:24:22.202Z,0.00
2019-01-21T03:25:22.101Z,0.00
2019-01-21T03:26:22.010Z,0.00
2019-01-21T03:27:21.914Z,0.00
2019-01-21T03:28:21.834Z,0.00
2019-01-21T03:29:21.731Z,0.00
2019-01-21T03:30:21.641Z,0.00
2019-01-21T03:31:21.548Z,0.00
2019-01-21T03:32:21.459Z,0.00
2019-01-21T03:33:21.370Z,0.00
2019-01-21T03:34:21.284Z,0.00
2019-01-21T03:35:21.211Z,0.00
2019-01-21T03:36:21.089Z,0.00
2019-01-21T03:37:20.994Z,0.00
2019-01-21T03:38:20.904Z,0.00
2019-01-21T03:39:20.814Z,0.00
2019-01-21T03:40:20.734Z,0.00
2019-01-21T03:41:20.630Z,0.00
2019-01-21T03:42:20.537Z,0.00
2019-01-21T03:43:20.443Z,0.00
2019-01-21T03:44:20.390Z,0.00
2019-01-21T03:45:20.261Z,0.00
2019-01-21T03:46:20.169Z,0.00
2019-01-21T03:47:20.075Z,0.00
2019-01-21T03:48:19.987Z,0.00
2019-01-21T03:49:19.894Z,0.00
2019-01-21T03:50:19.800Z,0.00
2019-01-21T03:51:19.710Z,0.00
2019-01-21T03:52:19.615Z,0.00
2019-01-21T03:53:19.524Z,0.00
2019-01-21T03:54:19.434Z,0.00
2019-01-21T03:55:19.340Z,0.00
2019-01-21T03:56:19.257Z,0.00
2019-01-21T03:57:19.156Z,0.00
2019-01-21T03:58:19.065Z,0.00
2019-01-21T03:59:19.006Z,0.00
2019-01-21T04:00:18.883Z,0.00
2019-01-21T04:01:18.790Z,0.00
2019-01-21T04:02:18.703Z,0.00
2019-01-21T04:03:18.606Z,0.00
2019-01-21T04:04:18.511Z,0.00
2019-01-21T04:05:18.422Z,0.00
2019-01-21T04:06:18.328Z,0.00
2019-01-21T04:07:18.268Z,0.00
2019-01-21T04:08:18.144Z,0.00
2019-01-21T04:09:18.055Z,0.00
2019-01-21T04:10:17.959Z,0.00
2019-01-21T04:11:17.869Z,0.00
2019-01-21T04:12:17.781Z,0.00
2019-01-21T04:13:17.682Z,0.00
2019-01-21T04:14:17.591Z,0.00
2019-01-21T04:15:17.496Z,0.00
2019-01-21T04:16:17.404Z,0.00
2019-01-21T04:17:17.317Z,0.00
2019-01-21T04:18:24.329Z,0.00
2019-01-21T04:19:17.126Z,0.00
2019-01-21T04:20:17.042Z,0.00
2019-01-21T04:21:16.951Z,0.00
2019-01-21T04:22:16.866Z,0.00
2019-01-21T04:23:16.763Z,0.00
2019-01-21T04:24:16.669Z,0.00
2019-01-21T04:25:16.574Z,0.00
2019-01-21T04:26:16.481Z,0.00
2019-01-21T04:27:16.389Z,0.00
2019-01-21T04:28:16.296Z,0.00
2019-01-21T04:29:16.209Z,0.00
2019-01-21T04:30:16.113Z,0.00
2019-01-21T04:31:16.021Z,0.00
2019-01-21T04:32:15.928Z,0.00
2019-01-21T04:33:15.835Z,0.00
2019-01-21T04:34:15.814Z,0.00
2019-01-21T04:35:15.647Z,0.00
2019-01-21T04:36:15.571Z,0.00
2019-01-21T04:37:15.467Z,0.00
2019-01-21T04:38:15.372Z,0.00
2019-01-21T04:39:15.280Z,0.00
2019-01-21T04:40:15.192Z,0.00
2019-01-21T04:41:15.098Z,0.00
2019-01-21T04:42:14.999Z,0.00
2019-01-21T04:43:14.910Z,0.00
2019-01-21T04:44:14.812Z,0.00
2019-01-21T04:45:14.725Z,0.00
2019-01-21T04:46:14.628Z,0.00
2019-01-21T04:47:14.544Z,0.00
2019-01-21T04:48:14.466Z,0.00
2019-01-21T04:49:14.358Z,0.00
2019-01-21T04:50:14.268Z,0.00
2019-01-21T04:51:14.169Z,0.00
2019-01-21T04:52:14.080Z,0.00
2019-01-21T04:53:13.979Z,0.00
2019-01-21T04:54:13.886Z,0.00
2019-01-21T04:55:13.806Z,0.00
2019-01-21T04:56:13.697Z,0.00
2019-01-21T04:57:13.605Z,0.00
2019-01-21T04:58:13.517Z,0.00
2019-01-21T04:59:13.433Z,0.00
2019-01-21T05:00:13.326Z,0.00
2019-01-21T05:01:13.233Z,0.00
2019-01-21T05:02:13.146Z,0.00
2019-01-21T05:03:13.053Z,0.00
2019-01-21T05:04:12.956Z,0.00
2019-01-21T05:05:12.864Z,0.00
2019-01-21T05:06:12.779Z,0.00
2019-01-21T05:07:12.676Z,0.00
2019-01-21T05:08:12.584Z,0.00
2019-01-21T05:09:12.490Z,0.00
2019-01-21T05:10:12.398Z,0.00
2019-01-21T05:11:12.305Z,0.00
2019-01-21T05:12:12.212Z,0.00
2019-01-21T05:13:12.128Z,0.00
2019-01-21T05:14:12.028Z,0.00
2019-01-21T05:15:11.937Z,0.00
2019-01-21T05:16:11.843Z,0.00
2019-01-21T05:17:11.748Z,0.00
2019-01-21T05:18:11.658Z,0.00
2019-01-21T05:19:11.564Z,0.00
2019-01-21T05:20:11.478Z,0.00
2019-01-21T05:21:11.383Z,0.00
2019-01-21T05:22:11.288Z,0.00
2019-01-21T05:23:11.193Z,0.00
2019-01-21T05:24:11.107Z,0.00
2019-01-21T05:25:11.011Z,0.00
2019-01-21T05:26:10.918Z,0.00
2019-01-21T05:27:10.828Z,0.00
2019-01-21T05:28:10.733Z,0.00
2019-01-21T05:29:10.640Z,0.00
2019-01-21T05:30:10.551Z,0.00
2019-01-21T05:31:10.461Z,0.00
2019-01-21T05:32:10.390Z,0.00
2019-01-21T05:33:10.280Z,0.00
2019-01-21T05:34:10.184Z,0.00
2019-01-21T05:35:10.132Z,0.00
2019-01-21T05:36:09.985Z,0.00
2019-01-21T05:37:09.897Z,0.00
2019-01-21T05:38:09.839Z,0.00
2019-01-21T05:39:09.711Z,0.00
2019-01-21T05:40:09.622Z,0.00
2019-01-21T05:41:09.521Z,0.00
2019-01-21T05:42:09.431Z,0.00
2019-01-21T05:43:09.341Z,0.00
2019-01-21T05:44:09.248Z,0.00
2019-01-21T05:45:09.153Z,0.00
2019-01-21T05:46:09.058Z,0.00
2019-01-21T05:47:08.965Z,0.00
2019-01-21T05:48:08.878Z,0.00
2019-01-21T05:49:08.784Z,0.00
2019-01-21T05:50:08.685Z,0.00
2019-01-21T05:51:08.593Z,0.00
2019-01-21T05:52:08.498Z,0.00
2019-01-21T05:53:08.443Z,0.00
2019-01-21T05:54:08.314Z,0.00
2019-01-21T05:55:08.221Z,0.00
2019-01-21T05:56:08.129Z,0.00
2019-01-21T05:57:08.034Z,0.00
2019-01-21T05:58:07.950Z,0.00
2019-01-21T05:59:07.864Z,0.00
2019-01-21T06:00:07.767Z,0.00
2019-01-21T06:01:07.665Z,0.00
2019-01-21T06:02:07.570Z,0.00
2019-01-21T06:03:07.491Z,0.00
2019-01-21T06:04:07.386Z,0.00
2019-01-21T06:05:07.290Z,0.00
2019-01-21T06:06:07.200Z,0.00
2019-01-21T06:07:07.107Z,0.00
2019-01-21T06:08:07.021Z,0.00
2019-01-21T06:09:06.922Z,0.00
2019-01-21T06:10:06.828Z,0.00
2019-01-21T06:11:06.737Z,0.00
2019-01-21T06:12:06.641Z,0.00
2019-01-21T06:13:06.550Z,0.00
2019-01-21T06:14:06.465Z,0.00
2019-01-21T06:15:06.375Z,0.00
2019-01-21T06:16:06.284Z,0.00
2019-01-21T06:17:06.178Z,0.00
2019-01-21T06:18:06.086Z,0.00
2019-01-21T06:19:05.994Z,0.00
2019-01-21T06:20:05.907Z,0.00
2019-01-21T06:21:05.806Z,0.00
2019-01-21T06:22:05.714Z,0.00
2019-01-21T06:23:05.638Z,0.00
2019-01-21T06:24:05.528Z,0.00
2019-01-21T06:25:05.440Z,0.00
2019-01-21T06:26:05.343Z,0.00
2019-01-21T06:27:05.248Z,4.00
2019-01-21T06:28:05.166Z,0.00
2019-01-21T06:29:05.064Z,0.00
2019-01-21T06:30:04.974Z,4.00
2019-01-21T06:31:04.878Z,0.00
2019-01-21T06:32:04.788Z,4.00
2019-01-21T06:33:04.694Z,4.00
2019-01-21T06:34:04.601Z,8.00
2019-01-21T06:35:04.507Z,8.00
2019-01-21T06:36:04.421Z,8.00
2019-01-21T06:37:04.328Z,8.00
2019-01-21T06:38:04.230Z,12.00
2019-01-21T06:39:04.142Z,12.00
2019-01-21T06:40:04.044Z,16.00
2019-01-21T06:41:03.961Z,16.00
2019-01-21T06:42:03.862Z,20.00
2019-01-21T06:43:03.765Z,24.00
2019-01-21T06:44:03.673Z,28.00
2019-01-21T06:45:03.581Z,32.00
2019-01-21T06:46:03.501Z,36.00
2019-01-21T06:47:03.395Z,36.00
2019-01-21T06:48:03.303Z,44.00
2019-01-21T06:49:04.861Z,48.00
2019-01-21T06:50:03.117Z,52.00
2019-01-21T06:51:03.037Z,64.00
2019-01-21T06:52:02.930Z,68.00
2019-01-21T06:53:02.837Z,76.00
2019-01-21T06:54:02.744Z,88.00
2019-01-21T06:55:02.653Z,92.00
2019-01-21T06:56:02.567Z,104.00
2019-01-21T06:57:02.468Z,112.00
2019-01-21T06:58:02.381Z,120.00
2019-01-21T06:59:02.282Z,132.00
2019-01-21T07:00:02.193Z,144.00
2019-01-21T07:01:02.101Z,152.00
2019-01-21T07:02:02.002Z,168.00
2019-01-21T07:03:01.910Z,180.00
2019-01-21T07:04:01.815Z,192.00
2019-01-21T07:05:01.727Z,204.00
2019-01-21T07:06:01.630Z,216.00
2019-01-21T07:07:01.537Z,228.00
2019-01-21T07:08:01.443Z,244.00
2019-01-21T07:09:01.350Z,256.00
2019-01-21T07:10:01.265Z,272.00
2019-01-21T07:11:01.165Z,288.00
2019-01-21T07:12:01.073Z,304.00
2019-01-21T07:13:00.979Z,320.00
2019-01-21T07:14:00.885Z,336.00
2019-01-21T07:15:00.793Z,352.00
2019-01-21T07:16:00.713Z,372.00
2019-01-21T07:17:00.609Z,384.00
2019-01-21T07:18:00.516Z,400.00
2019-01-21T07:19:00.422Z,416.00
2019-01-21T07:20:00.333Z,432.00
2019-01-21T07:21:00.237Z,452.00
2019-01-21T07:22:00.145Z,460.00
2019-01-21T07:23:00.055Z,484.00
2019-01-21T07:23:59.957Z,496.00
2019-01-21T07:24:59.866Z,512.00
2019-01-21T07:25:59.771Z,528.00
2019-01-21T07:26:59.680Z,544.00
2019-01-21T07:27:59.588Z,560.00
2019-01-21T07:28:59.497Z,584.00
2019-01-21T07:29:59.402Z,600.00
2019-01-21T07:30:59.306Z,620.00
2019-01-21T07:31:59.215Z,632.00
2019-01-21T07:32:59.124Z,652.00
2019-01-21T07:33:59.039Z,668.00
2019-01-21T07:34:58.936Z,680.00
2019-01-21T07:35:58.847Z,692.00
2019-01-21T07:36:58.750Z,708.00
2019-01-21T07:37:58.657Z,724.00
2019-01-21T07:38:58.577Z,744.00
2019-01-21T07:39:58.481Z,764.00
2019-01-21T07:40:58.384Z,776.00
2019-01-21T07:41:58.285Z,792.00
2019-01-21T07:42:58.193Z,808.00
2019-01-21T07:43:58.119Z,824.00
2019-01-21T07:44:58.005Z,848.00
2019-01-21T07:45:57.919Z,860.00
2019-01-21T07:46:57.817Z,876.00
2019-01-21T07:47:57.725Z,884.00
2019-01-21T07:48:57.635Z,904.00
2019-01-21T07:49:57.540Z,920.00
2019-01-21T07:50:57.446Z,940.00
2019-01-21T07:51:57.363Z,952.00
2019-01-21T07:52:57.260Z,960.00
2019-01-21T07:53:57.168Z,972.00
2019-01-21T07:54:57.079Z,988.00
2019-01-21T07:55:56.984Z,1008.00
2019-01-21T07:56:56.889Z,1028.00
2019-01-21T07:57:56.796Z,1044.00
2019-01-21T07:58:56.702Z,1056.00
2019-01-21T07:59:56.607Z,1092.00
2019-01-21T08:00:56.520Z,1080.00
2019-01-21T08:01:56.433Z,1096.00
2019-01-21T08:02:56.330Z,1112.00
2019-01-21T08:03:56.247Z,1120.00
2019-01-21T08:04:56.145Z,1136.00
2019-01-21T08:05:56.051Z,1168.00
2019-01-21T08:06:58.628Z,1188.00
2019-01-21T08:07:55.872Z,1200.00
2019-01-21T08:08:55.774Z,1212.00
2019-01-21T08:09:55.680Z,1228.00
2019-01-21T08:10:55.594Z,1240.00
2019-01-21T08:11:55.495Z,1252.00
2019-01-21T08:12:55.401Z,1268.00
2019-01-21T08:13:55.307Z,1264.00
2019-01-21T08:14:55.219Z,1276.00
2019-01-21T08:15:55.124Z,1292.00
2019-01-21T08:16:55.033Z,1316.00
2019-01-21T08:17:54.937Z,1328.00
2019-01-21T08:18:54.844Z,1332.00
2019-01-21T08:19:54.750Z,1348.00
2019-01-21T08:20:54.662Z,1372.00
2019-01-21T08:21:54.578Z,1384.00
2019-01-21T08:22:54.472Z,1384.00
2019-01-21T08:23:54.385Z,1400.00
2019-01-21T08:24:54.290Z,1404.00
2019-01-21T08:25:54.194Z,1416.00
2019-01-21T08:26:54.102Z,1440.00
2019-01-21T08:27:54.058Z,1476.00
2019-01-21T08:28:53.918Z,1468.00
2019-01-21T08:29:53.826Z,1480.00
2019-01-21T08:30:53.741Z,1492.00
2019-01-21T08:31:53.639Z,1512.00
2019-01-21T08:32:53.548Z,1532.00
2019-01-21T08:33:54.186Z,1544.00
2019-01-21T08:34:53.362Z,1556.00
2019-01-21T08:35:53.269Z,1576.00
2019-01-21T08:36:53.182Z,1592.00
2019-01-21T08:37:53.086Z,1608.00
2019-01-21T08:38:52.998Z,1616.00
2019-01-21T08:39:52.910Z,1628.00
2019-01-21T08:40:52.814Z,1636.00
2019-01-21T08:41:52.716Z,1636.00
2019-01-21T08:42:52.624Z,1652.00
2019-01-21T08:43:52.530Z,1668.00
2019-01-21T08:44:52.437Z,1692.00
2019-01-21T08:45:52.346Z,1712.00
2019-01-21T08:46:52.252Z,1736.00
2019-01-21T08:47:52.161Z,1768.00
2019-01-21T08:48:52.071Z,1780.00
2019-01-21T08:49:51.977Z,1792.00
2019-01-21T08:50:51.885Z,1800.00
2019-01-21T08:51:51.792Z,1808.00
2019-01-21T08:52:51.706Z,1808.00
2019-01-21T08:53:51.607Z,1820.00
2019-01-21T08:54:51.516Z,1832.00
2019-01-21T08:55:51.423Z,1832.00
2019-01-21T08:56:51.332Z,1848.00
2019-01-21T08:57:51.240Z,1860.00
2019-01-21T08:58:51.151Z,1872.00
2019-01-21T08:59:51.057Z,1884.00
2019-01-21T09:00:50.963Z,1880.00
2019-01-21T09:01:50.871Z,1896.00
2019-01-21T09:02:50.781Z,1908.00
2019-01-21T09:03:50.687Z,1924.00
2019-01-21T09:04:50.595Z,1940.00
2019-01-21T09:05:50.502Z,1956.00
2019-01-21T09:06:50.410Z,1960.00
2019-01-21T09:07:50.325Z,1972.00
2019-01-21T09:08:50.228Z,2004.00
2019-01-21T09:09:50.142Z,2024.00
2019-01-21T09:10:50.048Z,2036.00
2019-01-21T09:11:49.952Z,2052.00
2019-01-21T09:12:49.858Z,2064.00
2019-01-21T09:13:49.770Z,2068.00
2019-01-21T09:14:49.676Z,2108.00
2019-01-21T09:15:49.603Z,2124.00
2019-01-21T09:16:49.492Z,2132.00
2019-01-21T09:17:49.401Z,2148.00
2019-01-21T09:18:49.314Z,2156.00
2019-01-21T09:19:49.217Z,2168.00
2019-01-21T09:20:49.126Z,2188.00
2019-01-21T09:21:49.034Z,2200.00
2019-01-21T09:22:48.944Z,2216.00
2019-01-21T09:23:48.854Z,2236.00
2019-01-21T09:24:48.760Z,2248.00
2019-01-21T09:25:48.672Z,2264.00
2019-01-21T09:26:48.577Z,2288.00
2019-01-21T09:27:48.486Z,2308.00
2019-01-21T09:28:48.397Z,2320.00
2019-01-21T09:29:48.303Z,2340.00
2019-01-21T09:30:48.211Z,2360.00
2019-01-21T09:31:48.126Z,2380.00
2019-01-21T09:32:48.029Z,2392.00
2019-01-21T09:33:47.942Z,2408.00
2019-01-21T09:34:47.845Z,2416.00
2019-01-21T09:35:47.761Z,2420.00
2019-01-21T09:36:47.666Z,2420.00
2019-01-21T09:37:47.574Z,2424.00
2019-01-21T09:38:47.486Z,2440.00
2019-01-21T09:39:47.393Z,2460.00
2019-01-21T09:40:47.300Z,2484.00
2019-01-21T09:41:47.208Z,2496.00
2019-01-21T09:42:47.119Z,2512.00
2019-01-21T09:43:47.024Z,2540.00
2019-01-21T09:44:46.934Z,2556.00
2019-01-21T09:45:46.844Z,2560.00
2019-01-21T09:46:46.757Z,2576.00
2019-01-21T09:47:46.662Z,2596.00
2019-01-21T09:48:46.570Z,2620.00
2019-01-21T09:49:46.479Z,2648.00
2019-01-21T09:50:46.389Z,2664.00
2019-01-21T09:51:46.298Z,2684.00
2019-01-21T09:52:46.219Z,2692.00
2019-01-21T09:53:46.118Z,2704.00
2019-01-21T09:54:46.025Z,2712.00
2019-01-21T09:55:45.935Z,2744.00
2019-01-21T09:56:45.844Z,2740.00
2019-01-21T09:57:45.751Z,2772.00
2019-01-21T09:58:45.663Z,2784.00
2019-01-21T09:59:45.575Z,2800.00
2019-01-21T10:00:45.486Z,2816.00
2019-01-21T10:01:45.392Z,2844.00
2019-01-21T10:02:45.304Z,2872.00
2019-01-21T10:03:45.208Z,2888.00
2019-01-21T10:04:45.117Z,2896.00
2019-01-21T10:05:45.028Z,2916.00
2019-01-21T10:06:44.940Z,2936.00
2019-01-21T10:07:44.847Z,2944.00
2019-01-21T10:08:44.756Z,2956.00
2019-01-21T10:09:44.665Z,2976.00
2019-01-21T10:10:44.574Z,2992.00
2019-01-21T10:11:44.490Z,3020.00
2019-01-21T10:12:44.394Z,3044.00
2019-01-21T10:13:44.303Z,3064.00
2019-01-21T10:14:44.213Z,3084.00
2019-01-21T10:15:44.126Z,3104.00
2019-01-21T10:16:44.035Z,3132.00
2019-01-21T10:17:43.942Z,3156.00
2019-01-21T10:18:43.851Z,3172.00
2019-01-21T10:19:43.765Z,3196.00
2019-01-21T10:20:43.673Z,3260.00
2019-01-21T10:21:43.582Z,3272.00
2019-01-21T10:22:43.490Z,3268.00
2019-01-21T10:23:43.399Z,3288.00
2019-01-21T10:24:43.312Z,3320.00
2019-01-21T10:25:43.221Z,3324.00
2019-01-21T10:26:43.131Z,3368.00
2019-01-21T10:27:43.043Z,3384.00
2019-01-21T10:28:42.952Z,3412.00
2019-01-21T10:29:42.866Z,3448.00
2019-01-21T10:30:42.768Z,3480.00
2019-01-21T10:31:42.685Z,3500.00
2019-01-21T10:32:42.595Z,3532.00
2019-01-21T10:33:42.500Z,3568.00
2019-01-21T10:34:42.419Z,3576.00
2019-01-21T10:35:42.325Z,4584.00
2019-01-21T10:36:42.230Z,9816.00
2019-01-21T10:37:42.144Z,12556.00
2019-01-21T10:38:42.053Z,11448.00
2019-01-21T10:39:41.961Z,9804.00
2019-01-21T10:40:41.870Z,9352.00
2019-01-21T10:41:41.785Z,7148.00
2019-01-21T10:42:41.692Z,9464.00
2019-01-21T10:43:41.605Z,7616.00
2019-01-21T10:44:41.519Z,6524.00
2019-01-21T10:45:41.426Z,9756.00
2019-01-21T10:46:41.337Z,8936.00
2019-01-21T10:47:41.246Z,11332.00
2019-01-21T10:48:41.158Z,17056.00
2019-01-21T10:49:41.072Z,16512.00
2019-01-21T10:50:40.980Z,16000.00
2019-01-21T10:51:40.893Z,22528.00
2019-01-21T10:52:40.806Z,23232.00
2019-01-21T10:53:40.720Z,12436.00
2019-01-21T10:54:40.630Z,4240.00
2019-01-21T10:55:40.543Z,4784.00
2019-01-21T10:56:40.457Z,12952.00
2019-01-21T10:57:40.372Z,15952.00
2019-01-21T10:58:40.279Z,9108.00
2019-01-21T10:59:40.196Z,4624.00
2019-01-21T11:00:40.106Z,7468.00
2019-01-21T11:01:40.020Z,6808.00
2019-01-21T11:02:39.937Z,8320.00
2019-01-21T11:03:39.850Z,7296.00
2019-01-21T11:04:39.772Z,5444.00
2019-01-21T11:05:39.674Z,5680.00
2019-01-21T11:06:39.587Z,6092.00
2019-01-21T11:07:39.501Z,5792.00
2019-01-21T11:08:39.419Z,6152.00
2019-01-21T11:09:39.331Z,7680.00
2019-01-21T11:10:39.243Z,6512.00
2019-01-21T11:11:39.158Z,4748.00
2019-01-21T11:12:39.081Z,5284.00
2019-01-21T11:13:38.989Z,6332.00
2019-01-21T11:14:38.902Z,5648.00
2019-01-21T11:15:38.822Z,5072.00
2019-01-21T11:16:38.733Z,5084.00
2019-01-21T11:17:38.649Z,5036.00
2019-01-21T11:18:38.566Z,4908.00
2019-01-21T11:19:38.477Z,5036.00
2019-01-21T11:20:38.394Z,5180.00
2019-01-21T11:21:38.309Z,5216.00
2019-01-21T11:22:38.223Z,5236.00
2019-01-21T11:23:38.146Z,5348.00
2019-01-21T11:24:38.055Z,5364.00
2019-01-21T11:25:37.975Z,5256.00
2019-01-21T11:26:37.891Z,5220.00
2019-01-21T11:27:37.800Z,5204.00
2019-01-21T11:28:37.717Z,5128.00
2019-01-21T11:29:37.634Z,5108.00
2019-01-21T11:30:37.555Z,5144.00
2019-01-21T11:31:37.461Z,5220.00
2019-01-21T11:32:37.378Z,5240.00
2019-01-21T11:33:37.293Z,5240.00
2019-01-21T11:34:37.208Z,5240.00
2019-01-21T11:35:37.129Z,5244.00
2019-01-21T11:36:37.039Z,5252.00
2019-01-21T11:37:36.958Z,5268.00
2019-01-21T11:38:36.871Z,5332.00
2019-01-21T11:39:36.786Z,5356.00
2019-01-21T11:40:36.701Z,5320.00
2019-01-21T11:41:36.615Z,5428.00
2019-01-21T11:42:36.530Z,5832.00
2019-01-21T11:43:36.447Z,6104.00
2019-01-21T11:44:36.371Z,6224.00
2019-01-21T11:45:36.280Z,6300.00
2019-01-21T11:46:36.189Z,6296.00
2019-01-21T11:47:36.106Z,6264.00
2019-01-21T11:48:36.021Z,6308.00
2019-01-21T11:49:35.934Z,6280.00
2019-01-21T11:50:35.850Z,6192.00
2019-01-21T11:51:35.775Z,6120.00
2019-01-21T11:52:35.686Z,6040.00
2019-01-21T11:53:35.597Z,6020.00
2019-01-21T11:54:35.515Z,6016.00
2019-01-21T11:55:35.427Z,6132.00
2019-01-21T11:56:35.344Z,6228.00
2019-01-21T11:57:35.260Z,6288.00
2019-01-21T11:58:35.174Z,6360.00
2019-01-21T11:59:35.088Z,6360.00
2019-01-21T12:00:35.017Z,6420.00
2019-01-21T12:01:34.926Z,6436.00
2019-01-21T12:02:34.836Z,6436.00
2019-01-21T12:03:34.751Z,6480.00
2019-01-21T12:04:34.668Z,6576.00
2019-01-21T12:05:34.583Z,6592.00
2019-01-21T12:06:34.499Z,6580.00
2019-01-21T12:07:34.418Z,6652.00
2019-01-21T12:08:34.329Z,6692.00
2019-01-21T12:09:34.245Z,6728.00
2019-01-21T12:10:34.172Z,6696.00
2019-01-21T12:11:34.085Z,6816.00
2019-01-21T12:12:33.993Z,6860.00
2019-01-21T12:13:33.916Z,6868.00
2019-01-21T12:14:33.829Z,6824.00
2019-01-21T12:15:33.742Z,6872.00
2019-01-21T12:16:33.663Z,6896.00
2019-01-21T12:17:33.577Z,6900.00
2019-01-21T12:18:33.492Z,7008.00
2019-01-21T12:19:33.412Z,7028.00
2019-01-21T12:20:33.328Z,6984.00
2019-01-21T12:21:33.243Z,6944.00
2019-01-21T12:22:33.158Z,7004.00
2019-01-21T12:23:33.078Z,7032.00
2019-01-21T12:24:32.997Z,7000.00
2019-01-21T12:25:32.909Z,7112.00
2019-01-21T12:26:32.827Z,7136.00
2019-01-21T12:27:32.747Z,7144.00
2019-01-21T12:28:32.658Z,7124.00
2019-01-21T12:29:32.578Z,7160.00
2019-01-21T12:30:32.494Z,7116.00
2019-01-21T12:31:32.410Z,7124.00
2019-01-21T12:32:32.328Z,7112.00
2019-01-21T12:33:32.245Z,7192.00
2019-01-21T12:34:32.160Z,7116.00
2019-01-21T12:35:32.078Z,7092.00
2019-01-21T12:36:31.996Z,7112.00
2019-01-21T12:37:31.915Z,7012.00
2019-01-21T12:38:31.828Z,6988.00
2019-01-21T12:39:31.747Z,7040.00
2019-01-21T12:40:31.665Z,6956.00
2019-01-21T12:41:31.581Z,6968.00
2019-01-21T12:42:31.497Z,6996.00
2019-01-21T12:43:31.419Z,7084.00